메인 페이지
METAR-TAF:

METAR-TAF

공항 :

Islay, 스코틀랜드

위도: 55-40-55N, 경도: 006-15-24W, 고도: 16m

현재 날씨관측

예보는 47분 전, 20:20시(UTC)에 발표되었습니다.
북북서9kt
온도 12°C
습도 88%
기압 1006 hPa
시정 10km 이상

METAR: EGPI 202020Z AUTO 33009KT 9999 FEW016/// 12/10 Q1006

시각: 22:07 (21:07 UTC)

예보

예보는 7 시간 6분 전, 14:01시(UTC)에 발표되었습니다.
예보 대상 시간: 20일 15시부터 20일 18시까지 (UTC)
북서9kt
시정 10km 이상
고도 1000ft 상공 구름 보통
일시적
20일 15시부터 20일 18시까지 (UTC)
시정: 6000m
고도 800ft 상공 구름 많음
약한비, 이슬비
확률 30% :
일시적
20일 15시부터 20일 17시까지 (UTC)
시정: 3000m
고도 300ft 상공 구름 많음
비, 이슬비, 박무,

TAF: EGPI 201401Z 2015/2018 32009KT 9999 SCT010 TEMPO 2015/2018 6000 -RADZ BKN008 PROB30 TEMPO 2015/2017 3000 RADZ BR BKN003

4,000개 이상의 공항 관측 자료 및 예보 (METAR 및 TAF 보고).

지도상에서 검색 가능한 기상관측소가 노란 점과 빨간 점으로 표시되어 있습니다.

기상관측소 명을 보려면 표시 위로 마우스를 이동하세요.

날씨 관측과 예보를 보려면 클릭하세요.

지도 변경 : 확대하려면 엑스 표시가 있는 녹색 버튼, 축소하려면 빼기 표시가 있는 녹색 버튼, 다음 페이지의 지도를 보려면 녹색 화살표를 클릭하세요.


METAR-TAF: